Terminal Aerodrome Forecast
Issued by NWS Cheyenne, WY

Home | Current Version | Previous Version | Text Only | Print | Product List | Glossary On
Versions: 1 2 3 4 5 6 7 8 9 10 11 12 13 14 15 16 17 18 19 20
000
FTUS45 KCYS 281150 CCB
TAFCYS
TAF COR
KCYS 281150Z 2812/2912 02010G18KT 1SM -RA BR OVC002
     FM282200 04011KT 1 1/2SM -RASN BKN003 OVC007
     FM290000 01016G23KT 3/4SM -SN OVC003=

USA.gov is the U.S. government's official web portal to all federal, state and local government web resources and services.